Flight Track Log - Related Links

Times and Time Zones

All times are in EDT time to prevent confusion due to time zone crossing. See the SKW5162 flight status page for this flight to view local times or setup timezone preferences in your user account.

Time Position Orientation Groundspeed Altitude Reporting Facility
EDT Latitude Longitude Course Direction KTS MPH feet Rate Location/Type
Fri 04:16:27 PM 28.4333 -81.3167 270° West 158 182 500  Level Orlando TRACON
Fri 04:17:45 PM 28.5000 -81.3167 360° North 202 232 2,600 1,739 Climbing Orlando TRACON
Fri 04:18:45 PM 28.5500 -81.3333 344° North 235 270 4,500 2,059 Climbing Orlando TRACON
Fri 04:19:00 PM 28.4167 -81.6706 270° West  Level FlightAware Approximate
Fri 04:20:00 PM 28.4167 -81.7942 270° West  Level FlightAware Approximate
Fri 04:20:34 PM 28.5428 -81.4747 267° West 277 319 8,400  Level Jacksonville Center
Fri 04:21:00 PM 28.4167 -81.9177 270° West  Level FlightAware Approximate
Fri 04:21:34 PM 28.5353 -81.5575 264° West 272 313 10,600  Level Jacksonville Center
Fri 04:22:00 PM 28.4167 -82.0413 270° West  Level FlightAware Approximate
Fri 04:22:34 PM 28.5236 -81.6522 262° West 281 323 11,600  Level Jacksonville Center
Fri 04:23:34 PM 28.5142 -81.7561 264° West 313 360 13,000 1,600 Climbing Jacksonville Center
Fri 04:24:34 PM 28.5131 -81.8697 269° West 342 394 14,800 1,800 Climbing Jacksonville Center
Fri 04:25:34 PM 28.5286 -81.9828 279° West 354 407 16,600 1,800 Climbing Jacksonville Center
Fri 04:26:34 PM 28.5439 -82.1056 278° West 366 421 18,400 1,800 Climbing Jacksonville Center
Fri 04:27:34 PM 28.5614 -82.2236 280° West 371 427 20,200 1,500 Climbing Jacksonville Center
Fri 04:28:34 PM 28.5786 -82.3417 279° West 371 427 21,400 1,200 Climbing Jacksonville Center
Fri 04:29:34 PM 28.5936 -82.4600 278° West 371 427 22,600 1,200 Climbing Jacksonville Center
Fri 04:30:34 PM 28.6419 -82.5686 297° West 384 442 23,800 1,150 Climbing Jacksonville Center
Fri 04:31:34 PM 28.7236 -82.6322 326° Northwest 365 420 24,900 1,100 Climbing Jacksonville Center
Fri 04:32:34 PM 28.8092 -82.7078 322° Northwest 376 433 26,000 1,000 Climbing Jacksonville Center
Fri 04:33:34 PM 28.8969 -82.7883 321° Northwest 391 450 26,900 900 Climbing Jacksonville Center
Fri 04:34:34 PM 28.9847 -82.8689 321° Northwest 396 456 27,800 900 Climbing Jacksonville Center
Fri 04:35:34 PM 29.0725 -82.9497 321° Northwest 402 463 28,700 900 Climbing Jacksonville Center
Fri 04:36:34 PM 29.1578 -83.0328 320° Northwest 402 463 29,600 800 Climbing Jacksonville Center
Fri 04:37:34 PM 29.2475 -83.1164 321° Northwest 402 463 30,300 700 Climbing Jacksonville Center
Fri 04:38:34 PM 29.3331 -83.2022 319° Northwest 402 463 31,000 750 Climbing Jacksonville Center
Fri 04:39:34 PM 29.4203 -83.2836 321° Northwest 407 468 31,800 800 Climbing Jacksonville Center
Fri 04:40:34 PM 29.4953 -83.3769 313° West 407 468 32,600 800 Climbing Jacksonville Center
Fri 04:41:34 PM 29.5281 -83.4989 287° West 389 448 33,400 850 Climbing Jacksonville Center
Fri 04:42:34 PM 29.5336 -83.6253 273° West 389 448 34,300 1,000 Climbing Jacksonville Center
Fri 04:43:34 PM 29.5414 -83.7472 274° West 389 448 35,400 1,050 Climbing Jacksonville Center
Fri 04:44:34 PM 29.5489 -83.8667 274° West 389 448 36,400 900 Climbing Jacksonville Center
Fri 04:45:34 PM 29.5561 -83.9789 274° West 378 435 37,200 650 Climbing Jacksonville Center
Fri 04:46:34 PM 29.5636 -84.0911 274° West 365 420 37,700 400 Climbing Jacksonville Center
Fri 04:47:34 PM 29.5708 -84.2036 274° West 360 414 38,000 150 Climbing Jacksonville Center
Fri 04:48:34 PM 29.5800 -84.3183 275° West 360 414 38,000  Level Jacksonville Center
Fri 04:49:34 PM 29.5869 -84.4331 274° West 360 414 38,000  Level Jacksonville Center
Fri 04:50:34 PM 29.5981 -84.5478 276° West 365 420 38,000  Level Jacksonville Center
Fri 04:51:34 PM 29.6028 -84.6650 273° West 371 427 38,000  Level Jacksonville Center
Fri 04:52:34 PM 29.6117 -84.7869 275° West 371 427 38,000  Level Jacksonville Center
Fri 04:53:34 PM 29.6181 -84.9042 274° West 377 434 38,000  Level Jacksonville Center
Fri 04:54:34 PM 29.6267 -85.0236 275° West 377 434 38,000  Level Jacksonville Center
Fri 04:55:34 PM 29.6328 -85.1433 273° West 377 434 38,000  Level Jacksonville Center
Fri 04:56:34 PM 29.6433 -85.2631 276° West 377 434 38,000  Level Jacksonville Center
Fri 04:57:34 PM 29.6472 -85.3803 272° West 377 434 38,000  Level Jacksonville Center
Fri 04:58:34 PM 29.6553 -85.5022 274° West 377 434 38,000  Level Jacksonville Center
Fri 04:59:34 PM 29.6611 -85.6194 273° West 382 440 38,000  Level Jacksonville Center
Fri 05:00:34 PM 29.6689 -85.7417 274° West 382 440 38,000  Level Jacksonville Center
Fri 05:01:34 PM 29.6786 -85.8639 275° West 387 445 38,000  Level Jacksonville Center
Fri 05:02:34 PM 29.6842 -85.9858 273° West 387 445 38,000  Level Jacksonville Center
Fri 05:03:34 PM 29.6917 -86.1081 274° West 387 445 38,000  Level Jacksonville Center
Fri 05:04:34 PM 29.7008 -86.2328 275° West 387 445 38,000  Level Jacksonville Center
Fri 05:05:34 PM 29.7078 -86.3669 273° West 387 445 38,000  Level Jacksonville Center
Fri 05:06:34 PM 29.7128 -86.4914 273° West 387 445 38,000  Level Jacksonville Center
Fri 05:07:34 PM 29.7197 -86.6136 274° West 387 445 38,000  Level Jacksonville Center
Fri 05:08:34 PM 29.7261 -86.7428 273° West 392 451 38,000  Level Jacksonville Center
Fri 05:09:34 PM 29.7328 -86.8675 274° West 392 451 38,000  Level Jacksonville Center
Fri 05:10:26 PM 29.7364 -86.9586 273° West 397 457 38,000  Level Houston Center
Fri 05:11:28 PM 29.7431 -87.0836 274° West 395 455 38,000  Level Houston Center
Fri 05:12:31 PM 29.7494 -87.2364 273° West 400 460 38,000  Level Houston Center
Fri 05:13:33 PM 29.7556 -87.3628 273° West 397 457 38,000  Level Houston Center
Fri 05:14:35 PM 29.7619 -87.4900 273° West 400 460 38,000  Level Houston Center
Fri 05:15:37 PM 29.7669 -87.6178 273° West 401 461 38,000  Level Houston Center
Fri 05:16:39 PM 29.7719 -87.7622 272° West 402 463 38,000  Level Houston Center
Fri 05:17:41 PM 29.7778 -87.8911 273° West 403 464 38,000  Level Houston Center
Fri 05:18:43 PM 29.7839 -88.0189 273° West 402 463 38,000  Level Houston Center
Fri 05:19:45 PM 29.7886 -88.1486 272° West 403 464 38,000  Level Houston Center
Fri 05:20:48 PM 29.7936 -88.2781 273° West 406 467 38,000  Level Houston Center
Fri 05:21:50 PM 29.8011 -88.4278 273° West 404 465 38,000  Level Houston Center
Fri 05:22:52 PM 29.8042 -88.5572 272° West 405 466 38,000  Level Houston Center
Fri 05:23:54 PM 29.8092 -88.6856 273° West 404 465 38,000  Level Houston Center
Fri 05:24:56 PM 29.8139 -88.8153 272° West 406 467 38,000  Level Houston Center
Fri 05:25:58 PM 29.8186 -88.9456 272° West 407 468 38,000  Level Houston Center
Fri 05:27:00 PM 29.8231 -89.1017 272° West 407 468 38,000  Level Houston Center
Fri 05:28:02 PM 29.8275 -89.2314 272° West 407 468 38,000  Level Houston Center
Fri 05:29:05 PM 29.8306 -89.3622 272° West 406 467 38,000  Level Houston Center
Fri 05:30:07 PM 29.8347 -89.4931 272° West 408 470 38,000  Level Houston Center
Fri 05:31:09 PM 29.8389 -89.6253 272° West 412 474 38,000  Level Houston Center
Fri 05:32:11 PM 29.8428 -89.7575 272° West 412 474 38,000  Level Houston Center
Fri 05:33:13 PM 29.8464 -89.8919 272° West 416 479 38,000  Level Houston Center
Fri 05:34:15 PM 29.8425 -90.0539 268° West 420 483 38,000  Level Houston Center
Fri 05:35:17 PM 29.8211 -90.1858 259° West 416 479 38,000  Level Houston Center
Fri 05:36:19 PM 29.8008 -90.3189 260° West 420 483 38,000  Level Houston Center
Fri 05:37:22 PM 29.7797 -90.4514 260° West 420 483 38,000  Level Houston Center
Fri 05:38:24 PM 29.7592 -90.5831 260° West 418 481 38,000  Level Houston Center
Fri 05:39:26 PM 29.7397 -90.7133 260° West 416 479 38,000  Level Houston Center
Fri 05:40:28 PM 29.7153 -90.8706 260° West 416 479 38,000  Level Houston Center
Fri 05:41:30 PM 29.6939 -91.0003 259° West 413 475 38,000  Level Houston Center
Fri 05:42:32 PM 29.6747 -91.1303 260° West 413 475 38,000  Level Houston Center
Fri 05:43:34 PM 29.6528 -91.2592 259° West 413 475 38,000  Level Houston Center
Fri 05:44:36 PM 29.6333 -91.3883 260° West 411 473 38,000  Level Houston Center
Fri 05:45:39 PM 29.6119 -91.5183 259° West 414 476 38,000  Level Houston Center
Fri 05:46:41 PM 29.5864 -91.6742 259° West 414 476 38,000  Level Houston Center
Fri 05:47:43 PM 29.5650 -91.8017 259° West 414 476 38,000  Level Houston Center
Fri 05:48:45 PM 29.5439 -91.9322 260° West 416 479 38,000 -48 Level Houston Center
Fri 05:49:47 PM 29.5222 -92.0628 259° West 417 480 37,900  Descending Houston Center
Fri 05:50:49 PM 29.5000 -92.1942 259° West 419 482 38,000 48 Climbing Houston Center
Fri 05:51:51 PM 29.4733 -92.3514 259° West 417 480 38,000  Level Houston Center
Fri 05:52:53 PM 29.4542 -92.4833 261° West 420 483 38,000  Level Houston Center
Fri 05:53:55 PM 29.4611 -92.6158 273° West 419 482 38,000  Level Houston Center
Fri 05:54:57 PM 29.4686 -92.7475 274° West 414 476 38,000  Level Houston Center
Fri 05:56:00 PM 29.4744 -92.8814 273° West 417 480 38,000 -48 Level Houston Center
Fri 05:57:02 PM 29.4808 -93.0158 273° West 420 483 37,900 -1,548 Descending Houston Center
Fri 05:58:04 PM 29.4872 -93.1531 273° West 429 494 34,800 -3,242 Descending Houston Center
Fri 05:59:06 PM 29.4956 -93.3192 273° West 433 498 31,200 -3,194 Descending Houston Center
Fri 06:00:08 PM 29.5008 -93.4614 272° West 443 510 28,200 -2,903 Descending Houston Center
Fri 06:01:10 PM 29.5058 -93.6058 272° West 450 518 25,200 -2,952 Descending Houston Center
Fri 06:02:12 PM 29.5119 -93.7469 273° West 444 511 22,100 -2,952 Descending Houston Center
Fri 06:03:14 PM 29.5164 -93.8828 272° West 429 494 19,100 -3,029 Descending Houston Center
Fri 06:03:55 PM 29.5194 -93.9889 272° West 413 475 16,900 -2,710 Descending Houston Center
Fri 06:04:16 PM 29.5217 -94.0161 275° West 419 482 16,300 -2,514 Descending Houston Center
Fri 06:05:09 PM 29.5267 -94.1442 273° West 404 465 13,800 -1,737 Descending Houston Center
Fri 06:06:10 PM 29.5294 -94.2761 271° West 387 445 13,000 -488 Descending Houston Center
Fri 06:07:12 PM 29.5511 -94.3886 283° West 360 414 12,800 -940 Descending Houston Center
Fri 06:08:24 PM 29.6042 -94.5081 297° West 356 410 10,900 -1,323 Descending Houston Center
Fri 06:09:19 PM 29.6411 -94.5983 295° West 330 380 10,000 -1,243 Descending Houston Center
Fri 06:10:15 PM 29.6767 -94.6803 297° West 294 338 8,600 -1,538 Descending Houston Center
Fri 06:11:16 PM 29.7117 -94.7625 296° West 294 338 7,000 -1,279 Descending Houston Center
Fri 06:12:17 PM 29.7472 -94.8472 296° West 296 341 6,000 -492 Descending Houston Center
Fri 06:13:18 PM 29.7853 -94.9386 296° West 296 341 6,000  Level Houston Center
Fri 06:13:33 PM 29.7881 -94.9411 322° Northwest 296 341 6,000  Level Houston Center
Fri 06:14:13 PM 29.8200 -95.0161 296° West 299 344 6,000  Level Houston Center
Fri 06:14:35 PM 29.8306 -95.0431 294° West 298 343 6,000  Level Houston Center
Fri 06:15:20 PM 29.8581 -95.1078 296° West 293 337 6,000  Level Houston Center
Fri 06:15:37 PM 29.8664 -95.1261 298° West 294 338 6,000 -98 Level Houston Center
Fri 06:16:21 PM 29.8908 -95.1906 294° West 288 331 5,900  Descending Houston Center
Fri 06:16:39 PM 29.8989 -95.2089 297° West 289 333 6,000 98 Climbing Houston Center
Fri 06:17:22 PM 29.8992 -95.2789 270° West 273 314 6,000  Level Houston Center
Fri 06:17:41 PM 29.9003 -95.2958 274° West 276 318 6,000  Level Houston Center
Fri 06:18:23 PM 29.8986 -95.3656 268° West 237 273 6,000  Level Houston Center
Fri 06:18:42 PM 29.9006 -95.3733 286° West 251 289 6,000  Level Houston Center
Fri 06:19:24 PM 29.8994 -95.4450 269° West 245 282 6,000 -97 Level Houston Center
Fri 06:19:44 PM 29.9008 -95.4672 274° West 247 284 5,900 -871 Descending Houston Center
Fri 06:20:26 PM 29.9003 -95.5222 269° West 243 280 5,100 -1,065 Descending Houston Center
Fri 06:20:46 PM 29.9022 -95.5433 276° West 241 277 4,800 -1,200 Descending Houston Center
Fri 06:21:26 PM 29.9383 -95.5706 327° Northwest 245 282 3,900 -1,258 Descending Houston Center
Fri 06:21:48 PM 29.9575 -95.5675 North 246 283 3,500 -871 Descending Houston Center
Fri 06:22:28 PM 29.9800 -95.5222 60° Northeast 225 259 3,000 -677 Descending Houston Center
Fri 06:22:50 PM 29.9883 -95.5047 61° Northeast 231 266 2,800 -545 Descending Houston Center

Login

Don't have an account? Register now (free) for customized features, flight alerts, and more!